Time;durP1;ratioP1;P1;durP2;ratioP2;P2;SDS_P1;SDS_P2;PMS_P1;PMS_P2;Temp;Humidity;BMP_temperature;BMP_pressure;BME280_temperature;BME280_humidity;BME280_pressure;Samples;Min_cycle;Max_cycle;Signal;HPM_P1;HPM_P2
2024/03/11 00:01:12;;;;;;;;;;;;;;;15.74;46.65;101020.50;4943998;29;1041;-41
2024/03/11 00:03:38;;;;;;;;;;;;;;;15.77;47.20;101022.94;4961150;29;1077;-43
2024/03/11 00:06:04;;;;;;;;;;;;;;;17.25;43.61;101021.94;4961285;28;1065;-41
2024/03/11 00:08:31;;;;;;;;;;;;;;;16.84;44.27;101026.56;4961037;29;1923;-40
2024/03/11 00:10:59;;;;;;;;;;;;;;;16.21;45.67;101027.25;4960826;29;1157;-44
2024/03/11 00:13:32;;;;;;;;;;;;;;;15.80;46.78;101024.53;4961348;29;1128;-43
2024/03/11 00:15:59;;;;;;;;;;;;;;;15.61;47.38;101019.59;4961008;29;1109;-40
2024/03/11 00:18:24;;;;;;;;;;;;;;;15.39;47.60;101020.97;4955676;29;1136;-43
2024/03/11 00:20:50;;;;;;;;;;;;;;;16.67;45.09;101019.75;4953570;29;1138;-42
2024/03/11 00:23:16;;;;;;;;;;;;;;;17.48;42.89;101008.81;4948413;29;1137;-44
2024/03/11 00:25:43;;;;;;;;;;;;;;;16.46;45.15;101002.56;4949472;29;1102;-43
2024/03/11 00:28:08;;;;;;;;;;;;;;;15.98;46.27;100998.63;4960338;29;1926;-45
2024/03/11 00:30:35;;;;;;;;;;;;;;;15.74;46.94;100990.47;4960509;29;1069;-43
2024/03/11 00:33:02;;;;;;;;;;;;;;;16.39;45.70;100990.63;4960607;29;1045;-45
2024/03/11 00:35:28;;;;;;;;;;;;;;;17.55;42.87;100994.09;4960993;29;1134;-48
2024/03/11 00:37:53;;;;;;;;;;;;;;;16.62;44.67;100989.06;4948200;29;967;-45
2024/03/11 00:40:19;;;;;;;;;;;;;;;16.13;45.83;100988.78;4960853;29;1027;-44
2024/03/11 00:42:45;;;;;;;;;;;;;;;15.75;46.55;100977.09;4958102;29;1157;-43
2024/03/11 00:45:11;;;;;;;;;;;;;;;15.57;47.48;100984.47;4948097;29;1228;-42
2024/03/11 00:47:39;;;;;;;;;;;;;;;16.16;46.27;100982.44;4954537;29;1986;-44
2024/03/11 00:50:06;;;;;;;;;;;;;;;17.48;43.23;100987.53;4954664;29;1077;-41
2024/03/11 00:52:35;;;;;;;;;;;;;;;16.60;44.59;100983.00;4960275;29;1017;-45
2024/03/11 00:55:00;;;;;;;;;;;;;;;16.14;45.98;100976.38;4950755;29;1151;-41
2024/03/11 00:57:26;;;;;;;;;;;;;;;15.82;46.48;100980.19;4960484;29;1265;-44
2024/03/11 00:59:52;;;;;;;;;;;;;;;15.57;47.27;100973.84;4959515;28;1062;-44
2024/03/11 01:02:18;;;;;;;;;;;;;;;16.69;45.33;100975.34;4959936;29;1046;-43
2024/03/11 01:04:45;;;;;;;;;;;;;;;17.44;42.89;100976.28;4948306;29;1141;-43
2024/03/11 01:07:10;;;;;;;;;;;;;;;16.48;44.95;100966.09;4955170;29;1993;-42
2024/03/11 01:09:36;;;;;;;;;;;;;;;16.03;45.94;100966.50;4959973;29;1026;-46
2024/03/11 01:12:01;;;;;;;;;;;;;;;15.72;46.95;100961.41;4946555;29;1208;-44
2024/03/11 01:14:27;;;;;;;;;;;;;;;15.62;47.43;100963.81;4960317;29;1149;-42
2024/03/11 01:16:52;;;;;;;;;;;;;;;16.36;45.87;100965.16;4959866;29;1089;-44
2024/03/11 01:19:20;;;;;;;;;;;;;;;17.53;42.89;100971.25;4959834;29;1117;-42
2024/03/11 01:21:48;;;;;;;;;;;;;;;16.59;44.67;100969.81;4947559;29;1138;-42
2024/03/11 01:24:13;;;;;;;;;;;;;;;16.08;45.90;100968.84;4959831;29;1057;-42
2024/03/11 01:26:39;;;;;;;;;;;;;;;15.85;46.45;100969.38;4947211;29;1030;-46
2024/03/11 01:29:04;;;;;;;;;;;;;;;15.67;47.03;100959.06;4959589;29;1938;-42
2024/03/11 01:31:31;;;;;;;;;;;;;;;17.19;43.91;100958.59;4954180;28;985;-43
2024/03/11 01:33:57;;;;;;;;;;;;;;;16.80;44.44;100966.63;4959598;29;1023;-42
2024/03/11 01:36:22;;;;;;;;;;;;;;;16.14;45.93;100971.06;4959527;29;1128;-43
2024/03/11 01:38:48;;;;;;;;;;;;;;;15.88;46.59;100971.00;4946969;29;1217;-45
2024/03/11 01:41:14;;;;;;;;;;;;;;;15.67;47.02;100972.31;4959578;28;1069;-41
2024/03/11 01:43:40;;;;;;;;;;;;;;;16.05;46.46;100966.41;4947112;29;1213;-42
2024/03/11 01:46:06;;;;;;;;;;;;;;;17.39;43.44;100967.78;4959297;29;1177;-41
2024/03/11 01:48:32;;;;;;;;;;;;;;;17.02;43.68;100969.47;4958314;29;1986;-43
2024/03/11 01:50:57;;;;;;;;;;;;;;;16.29;45.74;100971.84;4959241;29;1098;-40
2024/03/11 01:53:24;;;;;;;;;;;;;;;15.96;46.44;100973.13;4944917;29;1264;-43
2024/03/11 01:55:50;;;;;;;;;;;;;;;15.69;47.12;100976.66;4958620;29;899;-44
2024/03/11 01:58:16;;;;;;;;;;;;;;;15.43;47.35;100972.94;4959014;29;990;-42
2024/03/11 02:00:41;;;;;;;;;;;;;;;16.55;45.48;100971.00;4941722;29;1082;-41
2024/03/11 02:03:07;;;;;;;;;;;;;;;17.48;42.98;100972.41;4942415;29;1110;-43
2024/03/11 02:05:34;;;;;;;;;;;;;;;16.50;45.16;100972.16;4959170;29;1117;-42
2024/03/11 02:08:00;;;;;;;;;;;;;;;15.93;46.21;100965.38;4958327;29;1907;-45
2024/03/11 02:10:27;;;;;;;;;;;;;;;15.70;46.87;100960.63;4946462;28;986;-43
2024/03/11 02:12:53;;;;;;;;;;;;;;;15.52;47.49;100965.34;4958746;29;1150;-42
2024/03/11 02:15:18;;;;;;;;;;;;;;;16.54;45.24;100959.53;4958752;29;1097;-44
2024/03/11 02:17:44;;;;;;;;;;;;;;;17.55;42.83;100956.84;4958578;29;1132;-41
2024/03/11 02:20:16;;;;;;;;;;;;;;;16.59;45.09;100952.09;4946950;29;869;-41
2024/03/11 02:22:46;;;;;;;;;;;;;;;16.14;46.06;100947.19;4937302;29;1047;-41
2024/03/11 02:25:20;;;;;;;;;;;;;;;15.77;46.76;100950.47;4958727;29;1045;-43
2024/03/11 02:27:46;;;;;;;;;;;;;;;15.79;47.22;100959.19;4929372;29;2015;-45
2024/03/11 02:30:12;;;;;;;;;;;;;;;17.31;43.44;100968.34;4958567;29;1061;-44
2024/03/11 02:32:39;;;;;;;;;;;;;;;16.92;44.00;100968.41;4956915;29;852;-41
2024/03/11 02:35:05;;;;;;;;;;;;;;;16.25;45.76;100959.72;4958130;29;1078;-43
2024/03/11 02:37:31;;;;;;;;;;;;;;;15.93;46.29;100950.31;4958226;29;1101;-45
2024/03/11 02:39:57;;;;;;;;;;;;;;;15.74;47.20;100950.69;4958406;29;1049;-43
2024/03/11 02:42:22;;;;;;;;;;;;;;;15.51;47.56;100942.44;4958463;29;1069;-41
2024/03/11 02:44:48;;;;;;;;;;;;;;;15.92;46.63;100948.59;4949075;29;1033;-46
2024/03/11 02:47:14;;;;;;;;;;;;;;;17.29;43.63;100950.78;4955309;29;1911;-46
2024/03/11 02:49:39;;;;;;;;;;;;;;;16.96;44.05;100951.28;4949456;29;1189;-45
2024/03/11 02:52:06;;;;;;;;;;;;;;;16.25;45.99;100949.94;4938395;29;1093;-44
2024/03/11 02:54:32;;;;;;;;;;;;;;;15.86;46.72;100949.88;4948766;29;1270;-43
2024/03/11 02:56:58;;;;;;;;;;;;;;;15.70;46.95;100951.84;4956640;29;872;-44
2024/03/11 02:59:24;;;;;;;;;;;;;;;15.94;46.54;100959.09;4941227;29;1042;-44
2024/03/11 03:01:50;;;;;;;;;;;;;;;17.33;43.51;100953.13;4958220;29;1156;-46
2024/03/11 03:04:18;;;;;;;;;;;;;;;16.88;44.07;100951.81;4958287;29;1084;-44
2024/03/11 03:06:44;;;;;;;;;;;;;;;16.16;45.79;100955.91;4955501;29;1068;-42
2024/03/11 03:09:10;;;;;;;;;;;;;;;15.81;46.69;100953.78;4948271;29;1918;-43
2024/03/11 03:11:37;;;;;;;;;;;;;;;15.67;47.20;100953.75;4955069;29;1239;-41
2024/03/11 03:14:03;;;;;;;;;;;;;;;16.38;45.78;100942.00;4948736;29;1181;-44
2024/03/11 03:16:28;;;;;;;;;;;;;;;17.51;42.75;100944.75;4958463;29;1240;-46
2024/03/11 03:18:54;;;;;;;;;;;;;;;16.46;45.28;100941.47;4958300;29;1147;-43
2024/03/11 03:21:21;;;;;;;;;;;;;;;16.02;46.34;100946.22;4957968;29;1041;-46
2024/03/11 03:23:47;;;;;;;;;;;;;;;15.74;46.91;100937.41;4950638;28;1235;-40
2024/03/11 03:26:12;;;;;;;;;;;;;;;15.72;47.31;100934.88;4955518;29;1236;-42
2024/03/11 03:28:38;;;;;;;;;;;;;;;17.19;43.78;100942.63;4952647;29;1974;-46
2024/03/11 03:31:04;;;;;;;;;;;;;;;17.12;43.65;100950.22;4961575;29;1136;-42
2024/03/11 03:33:30;;;;;;;;;;;;;;;16.35;45.38;100944.84;4952251;29;1157;-42
2024/03/11 03:35:55;;;;;;;;;;;;;;;15.97;46.23;100943.84;4958851;29;1173;-44
2024/03/11 03:38:21;;;;;;;;;;;;;;;15.69;46.82;100940.38;4961767;29;1434;-43
2024/03/11 03:40:46;;;;;;;;;;;;;;;15.74;47.06;100940.94;4961525;29;1104;-42
2024/03/11 03:43:12;;;;;;;;;;;;;;;17.21;43.76;100940.72;4961460;29;1419;-44
2024/03/11 03:45:37;;;;;;;;;;;;;;;16.70;44.54;100932.72;4962067;29;1148;-43
2024/03/11 03:48:03;;;;;;;;;;;;;;;16.09;46.20;100930.72;4952035;29;1911;-42
2024/03/11 03:50:29;;;;;;;;;;;;;;;15.81;46.89;100941.38;4958671;29;1189;-41
2024/03/11 03:52:55;;;;;;;;;;;;;;;15.54;47.38;100935.16;4961664;29;1065;-43
2024/03/11 03:55:23;;;;;;;;;;;;;;;16.93;44.50;100943.53;4959507;29;1215;-45
2024/03/11 03:57:49;;;;;;;;;;;;;;;17.09;43.55;100945.97;4950942;29;1015;-41
2024/03/11 04:00:15;;;;;;;;;;;;;;;16.32;45.47;100952.19;4961551;29;1129;-45
2024/03/11 04:02:50;;;;;;;;;;;;;;;15.94;46.48;100953.81;4961129;29;1065;-44
2024/03/11 04:05:16;;;;;;;;;;;;;;;15.63;46.95;100946.94;4961461;29;1284;-46
2024/03/11 04:07:42;;;;;;;;;;;;;;;15.76;46.96;100948.78;4957097;29;1906;-42
2024/03/11 04:10:13;;;;;;;;;;;;;;;17.24;43.68;100953.78;4961140;29;1222;-46
2024/03/11 04:12:44;;;;;;;;;;;;;;;16.67;44.70;100948.88;4960967;29;1366;-44
2024/03/11 04:15:12;;;;;;;;;;;;;;;16.13;46.11;100943.66;4961612;29;1085;-41
2024/03/11 04:17:38;;;;;;;;;;;;;;;15.80;46.60;100944.97;4948594;29;1098;-40
2024/03/11 04:20:10;;;;;;;;;;;;;;;15.75;47.11;100950.56;4960551;29;1026;-44
2024/03/11 04:22:37;;;;;;;;;;;;;;;17.25;43.67;100955.47;4949731;29;1145;-45
2024/03/11 04:25:05;;;;;;;;;;;;;;;16.85;44.12;100952.03;4961037;29;1240;-45
2024/03/11 04:27:30;;;;;;;;;;;;;;;16.24;45.66;100948.25;4960947;29;1906;-43
2024/03/11 04:29:56;;;;;;;;;;;;;;;15.89;46.14;100949.66;4960635;29;1049;-43
2024/03/11 04:32:24;;;;;;;;;;;;;;;15.63;47.16;100948.75;4955501;29;1250;-43
2024/03/11 04:34:49;;;;;;;;;;;;;;;15.70;46.95;100949.19;4959842;28;1283;-46
2024/03/11 04:37:15;;;;;;;;;;;;;;;17.17;43.75;100941.91;4952273;29;1006;-41
2024/03/11 04:39:40;;;;;;;;;;;;;;;17.30;43.14;100948.03;4943288;29;1154;-41
2024/03/11 04:42:06;;;;;;;;;;;;;;;16.44;44.85;100948.69;4960690;29;1093;-44
2024/03/11 04:44:32;;;;;;;;;;;;;;;16.04;45.96;100939.00;4953927;29;1560;-44
2024/03/11 04:46:57;;;;;;;;;;;;;;;15.83;46.58;100951.88;4960497;29;1065;-47
2024/03/11 04:49:23;;;;;;;;;;;;;;;15.69;46.87;100951.00;4960093;29;1906;-41
2024/03/11 04:51:49;;;;;;;;;;;;;;;16.83;44.71;100951.28;4960545;29;1080;-41
2024/03/11 04:54:16;;;;;;;;;;;;;;;17.10;43.69;100957.47;4960253;29;1187;-41
2024/03/11 04:56:43;;;;;;;;;;;;;;;16.32;45.52;100953.03;4960042;29;2295;-43
2024/03/11 04:59:09;;;;;;;;;;;;;;;15.86;46.55;100955.19;4958486;29;1296;-41
2024/03/11 05:01:35;;;;;;;;;;;;;;;15.69;47.09;100961.59;4959650;29;1100;-42
2024/03/11 05:04:00;;;;;;;;;;;;;;;15.49;47.28;100955.81;4960026;29;1002;-41
2024/03/11 05:06:25;;;;;;;;;;;;;;;16.74;45.04;100962.59;4960191;29;986;-43
2024/03/11 05:08:51;;;;;;;;;;;;;;;17.56;42.70;100963.88;4959987;29;1910;-42
2024/03/11 05:11:17;;;;;;;;;;;;;;;17.00;44.09;100962.53;4960183;29;1054;-39
2024/03/11 05:13:46;;;;;;;;;;;;;;;16.91;43.86;100965.84;4959779;29;1037;-43
2024/03/11 05:16:11;;;;;;;;;;;;;;;15.71;46.66;100961.50;4959765;29;1094;-44
2024/03/11 05:18:37;;;;;;;;;;;;;;;16.40;46.13;100963.13;4959679;29;1030;-40
2024/03/11 05:21:02;;;;;;;;;;;;;;;16.35;45.51;100963.44;4952777;29;994;-44
2024/03/11 05:23:28;;;;;;;;;;;;;;;15.47;47.02;100970.09;4960099;29;1071;-40
2024/03/11 05:25:53;;;;;;;;;;;;;;;15.82;47.49;100974.03;4959627;29;1953;-41
2024/03/11 05:28:19;;;;;;;;;;;;;;;16.53;44.72;100971.94;4959126;29;1971;-41
2024/03/11 05:30:44;;;;;;;;;;;;;;;15.61;46.89;100980.69;4958654;28;950;-41
2024/03/11 05:33:10;;;;;;;;;;;;;;;16.42;46.38;100985.13;4955130;29;1190;-42
2024/03/11 05:35:36;;;;;;;;;;;;;;;16.70;44.87;100985.84;4958987;29;1106;-40
2024/03/11 05:38:01;;;;;;;;;;;;;;;15.61;46.95;100990.41;4959241;29;1117;-43
2024/03/11 05:40:27;;;;;;;;;;;;;;;15.24;46.63;100983.03;4959317;29;995;-38
2024/03/11 05:42:53;;;;;;;;;;;;;;;17.34;43.98;100981.41;4959356;29;1082;-41
2024/03/11 05:45:18;;;;;;;;;;;;;;;15.83;46.82;100989.03;4958049;28;1315;-44
2024/03/11 05:47:45;;;;;;;;;;;;;;;17.72;43.12;100989.34;4958449;29;1974;-39
2024/03/11 05:50:12;;;;;;;;;;;;;;;17.31;43.49;100986.97;4958519;29;1450;-41
2024/03/11 05:52:38;;;;;;;;;;;;;;;16.12;45.72;100996.84;4959115;29;1134;-38
2024/03/11 05:55:11;;;;;;;;;;;;;;;16.27;46.79;100997.63;4958300;29;2487;-39
2024/03/11 05:57:37;;;;;;;;;;;;;;;16.27;45.74;101000.28;4958374;29;906;-38
2024/03/11 06:00:09;;;;;;;;;;;;;;;15.68;46.49;101005.00;4958456;29;1201;-37
2024/03/11 06:02:36;;;;;;;;;;;;;;;16.91;45.39;101009.22;4958815;29;1078;-37
2024/03/11 06:05:02;;;;;;;;;;;;;;;16.25;45.87;101010.16;4958436;29;1101;-37
2024/03/11 06:07:28;;;;;;;;;;;;;;;16.37;46.51;101013.78;4958198;29;1911;-37
2024/03/11 06:09:53;;;;;;;;;;;;;;;17.40;43.61;101020.00;4952819;29;1123;-37
2024/03/11 06:12:22;;;;;;;;;;;;;;;16.12;46.20;101023.41;4957986;29;1038;-41
2024/03/11 06:14:47;;;;;;;;;;;;;;;16.12;46.90;101026.06;4957411;29;1434;-39
2024/03/11 06:17:13;;;;;;;;;;;;;;;17.62;42.98;101021.09;4941347;29;1077;-38
2024/03/11 06:19:38;;;;;;;;;;;;;;;16.18;46.04;101024.81;4957786;29;1124;-36
2024/03/11 06:22:04;;;;;;;;;;;;;;;15.78;46.99;101029.13;4950917;29;854;-37
2024/03/11 06:24:32;;;;;;;;;;;;;;;17.72;43.31;101034.56;4958239;29;2375;-37
2024/03/11 06:26:58;;;;;;;;;;;;;;;16.19;46.23;101031.81;4958620;29;1042;-39
2024/03/11 06:29:26;;;;;;;;;;;;;;;15.76;46.65;101028.34;4958488;29;1903;-39
2024/03/11 06:31:55;;;;;;;;;;;;;;;15.54;46.82;101027.94;4957850;29;1064;-38
2024/03/11 06:34:21;;;;;;;;;;;;;;;17.18;44.90;101031.34;4957655;29;1062;-44
2024/03/11 06:36:48;;;;;;;;;;;;;;;16.24;45.92;101032.34;4957966;29;991;-41
2024/03/11 06:39:14;;;;;;;;;;;;;;;15.66;46.69;101036.06;4956748;29;1109;-40
2024/03/11 06:41:41;;;;;;;;;;;;;;;15.82;47.46;101035.91;4957849;29;1378;-38
2024/03/11 06:44:06;;;;;;;;;;;;;;;17.43;43.84;101035.75;4957899;29;1030;-40
2024/03/11 06:46:32;;;;;;;;;;;;;;;16.05;46.80;101038.03;4957292;29;892;-38
2024/03/11 06:48:57;;;;;;;;;;;;;;;15.68;46.77;101036.81;4951329;29;1914;-39
2024/03/11 06:51:23;;;;;;;;;;;;;;;17.00;44.93;101034.28;4952724;29;1022;-38
2024/03/11 06:53:49;;;;;;;;;;;;;;;15.84;46.66;101038.47;4955621;29;1272;-42
2024/03/11 06:56:15;;;;;;;;;;;;;;;16.68;46.13;101038.25;4956912;29;2564;-40
2024/03/11 06:58:41;;;;;;;;;;;;;;;16.73;45.44;101036.13;4956804;28;873;-38
2024/03/11 07:01:07;;;;;;;;;;;;;;;15.84;46.70;101034.00;4957097;28;1041;-38
2024/03/11 07:03:35;;;;;;;;;;;;;;;17.34;44.46;101037.25;4940269;29;1136;-41
2024/03/11 07:06:02;;;;;;;;;;;;;;;16.12;46.34;101039.31;4956935;29;972;-42
2024/03/11 07:08:28;;;;;;;;;;;;;;;15.64;46.61;101033.50;4957759;29;1910;-43
2024/03/11 07:10:54;;;;;;;;;;;;;;;17.24;45.12;101034.41;4954892;28;1165;-43
2024/03/11 07:13:19;;;;;;;;;;;;;;;16.33;46.27;101039.69;4957721;29;1037;-42
2024/03/11 07:15:45;;;;;;;;;;;;;;;15.84;46.35;101049.94;4957014;29;1130;-45
2024/03/11 07:18:12;;;;;;;;;;;;;;;15.57;46.25;101048.09;4958473;29;990;-37
2024/03/11 07:20:38;;;;;;;;;;;;;;;17.07;45.62;101046.19;4957419;29;1162;-38
2024/03/11 07:23:03;;;;;;;;;;;;;;;16.22;46.44;101045.72;4947891;29;873;-38
2024/03/11 07:25:29;;;;;;;;;;;;;;;15.64;46.91;101041.47;4944697;29;2398;-40
2024/03/11 07:27:54;;;;;;;;;;;;;;;16.07;47.33;101049.38;4957652;29;1985;-41
2024/03/11 07:30:23;;;;;;;;;;;;;;;15.98;46.99;101043.72;4957815;29;1038;-38
2024/03/11 07:33:04;;;;;;;;;;;;;;;16.20;47.74;101044.97;4956314;29;1303;-38
2024/03/11 07:35:32;;;;;;;;;;;;;;;17.38;44.21;101044.03;4952352;29;1110;-42
2024/03/11 07:37:57;;;;;;;;;;;;;;;16.09;46.91;101044.84;4957760;29;1311;-38
2024/03/11 07:40:23;;;;;;;;;;;;;;;15.89;47.29;101049.63;4957823;29;1319;-41
2024/03/11 07:42:48;;;;;;;;;;;;;;;16.25;46.73;101056.13;4957720;29;1069;-39
2024/03/11 07:45:14;;;;;;;;;;;;;;;15.58;47.57;101051.63;4957088;29;1354;-41
2024/03/11 07:47:40;;;;;;;;;;;;;;;16.51;47.07;101050.03;4957374;29;1902;-39
2024/03/11 07:50:08;;;;;;;;;;;;;;;16.38;46.66;101045.53;4957403;29;1342;-39
2024/03/11 07:52:34;;;;;;;;;;;;;;;15.81;47.58;101046.63;4958135;29;1178;-38
2024/03/11 07:55:00;;;;;;;;;;;;;;;17.66;43.77;101043.88;4957538;29;1329;-38
2024/03/11 07:57:26;;;;;;;;;;;;;;;16.12;46.77;101034.88;4954214;29;1126;-39
2024/03/11 07:59:51;;;;;;;;;;;;;;;15.81;46.75;101026.25;4950802;29;1181;-39
2024/03/11 08:02:17;;;;;;;;;;;;;;;17.79;44.00;101032.31;4957825;29;1192;-38
2024/03/11 08:04:42;;;;;;;;;;;;;;;16.34;46.26;101033.44;4957971;29;1161;-37
2024/03/11 08:07:08;;;;;;;;;;;;;;;15.81;46.96;101030.72;4957428;29;1117;-39
2024/03/11 08:09:34;;;;;;;;;;;;;;;17.45;44.30;101035.66;4955681;28;2008;-37
2024/03/11 08:12:00;;;;;;;;;;;;;;;16.19;46.76;101035.31;4956254;29;1046;-37
2024/03/11 08:14:25;;;;;;;;;;;;;;;15.77;46.89;101032.69;4961021;29;1121;-40
2024/03/11 08:16:51;;;;;;;;;;;;;;;17.44;44.65;101033.94;4961254;29;1208;-38
2024/03/11 08:19:17;;;;;;;;;;;;;;;16.21;46.51;101038.72;4961050;29;944;-37
2024/03/11 08:21:43;;;;;;;;;;;;;;;15.68;47.27;101031.53;4957572;29;1077;-38
2024/03/11 08:24:11;;;;;;;;;;;;;;;17.84;43.71;101044.31;4960785;29;1037;-38
2024/03/11 08:26:37;;;;;;;;;;;;;;;16.28;46.36;101039.16;4960591;29;1140;-36
2024/03/11 08:29:03;;;;;;;;;;;;;;;15.90;46.46;101044.22;4960609;29;1911;-37
2024/03/11 08:31:29;;;;;;;;;;;;;;;16.86;46.50;101037.94;4960936;28;1154;-38
2024/03/11 08:33:54;;;;;;;;;;;;;;;16.55;46.77;101032.09;4960344;29;1038;-36
2024/03/11 08:36:20;;;;;;;;;;;;;;;17.81;45.34;101030.38;4960353;29;1058;-45
2024/03/11 08:38:45;;;;;;;;;;;;;;;16.96;46.43;101033.69;4960785;29;1434;-38
2024/03/11 08:41:14;;;;;;;;;;;;;;;16.26;47.05;101035.75;4959987;29;1291;-39
2024/03/11 08:43:39;;;;;;;;;;;;;;;17.86;45.49;101041.56;4960250;29;1359;-43
2024/03/11 08:46:05;;;;;;;;;;;;;;;16.75;46.87;101038.66;4955206;29;1141;-44
2024/03/11 08:48:30;;;;;;;;;;;;;;;17.97;44.94;101036.28;4953684;29;1906;-39
2024/03/11 08:50:57;;;;;;;;;;;;;;;18.18;43.84;101032.16;4949906;29;1078;-42
2024/03/11 08:53:23;;;;;;;;;;;;;;;16.81;46.21;101040.06;4959945;29;1143;-41
2024/03/11 08:55:49;;;;;;;;;;;;;;;18.71;43.18;101044.13;4959885;29;1057;-42
2024/03/11 08:58:15;;;;;;;;;;;;;;;15.40;49.83;101046.53;4958149;29;1296;-38
2024/03/11 09:00:41;;;;;;;;;;;;;;;17.74;45.40;101049.47;4960357;29;1129;-39
2024/03/11 09:03:07;;;;;;;;;;;;;;;18.43;43.01;101031.16;4960163;29;1034;-40
2024/03/11 09:05:33;;;;;;;;;;;;;;;15.65;50.83;101035.22;4960170;29;1097;-42
2024/03/11 09:08:04;;;;;;;;;;;;;;;18.63;43.08;101020.75;4959513;29;1965;-39
2024/03/11 09:10:30;;;;;;;;;;;;;;;17.49;45.04;101007.84;4959585;29;1050;-45
2024/03/11 09:12:56;;;;;;;;;;;;;;;16.72;46.40;101009.66;4960239;28;1132;-43
2024/03/11 09:15:25;;;;;;;;;;;;;;;16.54;46.27;101007.31;4942902;29;1168;-43
2024/03/11 09:17:50;;;;;;;;;;;;;;;17.94;44.29;101004.56;4959386;28;1041;-39
2024/03/11 09:20:16;;;;;;;;;;;;;;;16.80;46.47;101009.13;4958961;28;1221;-38
2024/03/11 09:22:45;;;;;;;;;;;;;;;17.90;45.07;101015.56;4958898;29;1141;-41
2024/03/11 09:25:17;;;;;;;;;;;;;;;17.42;45.20;101010.09;4959897;29;1070;-39
2024/03/11 09:27:45;;;;;;;;;;;;;;;16.68;46.09;101016.16;4959383;29;1903;-39
2024/03/11 09:30:11;;;;;;;;;;;;;;;18.11;44.04;101027.25;4959850;29;1108;-41
2024/03/11 09:32:37;;;;;;;;;;;;;;;16.84;46.11;101034.53;4959483;29;1327;-38
2024/03/11 09:35:05;;;;;;;;;;;;;;;17.45;45.64;101044.44;4958880;29;1077;-38
2024/03/11 09:37:31;;;;;;;;;;;;;;;17.53;45.02;101035.94;4960024;29;1201;-41
2024/03/11 09:39:56;;;;;;;;;;;;;;;16.69;46.40;101033.78;4959063;29;1049;-38
2024/03/11 09:42:23;;;;;;;;;;;;;;;17.10;46.37;101045.19;4959394;29;1167;-41
2024/03/11 09:44:49;;;;;;;;;;;;;;;16.92;45.97;101026.88;4959743;29;1022;-38
2024/03/11 09:47:16;;;;;;;;;;;;;;;16.49;46.09;101042.16;4938016;29;1074;-43
2024/03/11 09:49:42;;;;;;;;;;;;;;;18.27;43.97;101047.44;4933880;29;1903;-39
2024/03/11 09:52:09;;;;;;;;;;;;;;;16.88;46.35;101038.69;4954627;29;1041;-37
2024/03/11 09:54:34;;;;;;;;;;;;;;;17.85;44.93;101047.84;4950819;29;1172;-39
2024/03/11 09:57:00;;;;;;;;;;;;;;;17.92;44.07;101038.44;4946555;29;1166;-40
2024/03/11 09:59:25;;;;;;;;;;;;;;;16.86;45.89;101029.97;4958714;29;1323;-39
2024/03/11 10:01:54;;;;;;;;;;;;;;;17.20;46.37;101030.25;4941681;29;1370;-38
2024/03/11 10:04:21;;;;;;;;;;;;;;;17.04;45.92;101025.16;4958653;29;1308;-39
2024/03/11 10:06:59;;;;;;;;;;;;;;;18.07;44.55;101032.91;4958735;29;1418;-39
2024/03/11 10:12:22;;;;;;;;;;;;;;;17.48;45.92;101033.59;4943889;29;1209;-39
2024/03/11 10:14:50;;;;;;;;;;;;;;;19.25;41.54;101032.91;4957979;29;1287;-40
2024/03/11 10:17:24;;;;;;;;;;;;;;;15.20;51.64;101035.38;4958274;29;1343;-40
2024/03/11 10:19:58;;;;;;;;;;;;;;;18.68;42.92;101042.56;4958024;29;1169;-37
2024/03/11 10:22:28;;;;;;;;;;;;;;;16.06;47.77;101031.78;4957318;29;2699;-38
2024/03/11 10:24:57;;;;;;;;;;;;;;;17.68;45.40;101044.63;4958394;29;1053;-39
2024/03/11 10:27:23;;;;;;;;;;;;;;;19.15;41.55;101040.81;4958308;29;1142;-41
2024/03/11 10:29:52;;;;;;;;;;;;;;;15.57;50.39;101040.16;4957800;29;1968;-41
2024/03/11 10:32:42;;;;;;;;;;;;;;;18.76;42.80;101033.13;4944925;29;997;-39
2024/03/11 10:35:10;;;;;;;;;;;;;;;15.48;49.32;101027.50;4956221;29;1066;-41
2024/03/11 10:37:42;;;;;;;;;;;;;;;18.07;44.57;101038.25;4958095;29;1041;-38
2024/03/11 10:40:11;;;;;;;;;;;;;;;18.20;43.16;101035.56;4957476;29;1431;-38
2024/03/11 10:42:37;;;;;;;;;;;;;;;16.31;48.95;101041.63;4957830;29;1344;-37
2024/03/11 10:45:06;;;;;;;;;;;;;;;19.00;42.25;101046.31;4958692;29;1125;-42
2024/03/11 10:47:32;;;;;;;;;;;;;;;15.62;48.75;101048.66;4957617;29;2014;-40
2024/03/11 10:49:59;;;;;;;;;;;;;;;17.81;45.16;101046.34;4957535;29;1280;-38
2024/03/11 10:52:25;;;;;;;;;;;;;;;18.50;42.65;101033.34;4957594;29;2529;-39
2024/03/11 10:54:57;;;;;;;;;;;;;;;16.01;49.49;101027.63;4957343;29;1311;-38
2024/03/11 10:57:24;;;;;;;;;;;;;;;18.92;42.34;101025.63;4957035;29;1117;-41
2024/03/11 10:59:49;;;;;;;;;;;;;;;15.90;48.23;101023.00;4957104;29;1299;-39
2024/03/11 11:02:22;;;;;;;;;;;;;;;17.89;44.87;101024.50;4958382;29;1129;-38
2024/03/11 11:04:52;;;;;;;;;;;;;;;18.97;41.67;101012.78;4957744;29;1144;-39
2024/03/11 11:07:20;;;;;;;;;;;;;;;16.02;49.50;101012.53;4958472;29;1145;-39
2024/03/11 11:09:49;;;;;;;;;;;;;;;19.00;42.16;101003.66;4928306;29;1907;-46
2024/03/11 11:12:15;;;;;;;;;;;;;;;15.95;47.72;100997.97;4954656;29;887;-40
2024/03/11 11:14:41;;;;;;;;;;;;;;;17.96;44.88;101005.31;4952607;29;1177;-40
2024/03/11 11:17:09;;;;;;;;;;;;;;;19.18;41.39;101014.75;4950992;29;1085;-40
2024/03/11 11:19:35;;;;;;;;;;;;;;;15.79;50.24;101002.50;4957680;29;1165;-44
2024/03/11 11:22:01;;;;;;;;;;;;;;;18.94;42.30;101002.34;4957010;29;1069;-41
2024/03/11 11:24:39;;;;;;;;;;;;;;;16.35;47.05;101000.63;4949281;29;1041;-43
2024/03/11 11:27:06;;;;;;;;;;;;;;;17.99;44.75;101012.19;4958504;29;1157;-43
2024/03/11 11:29:32;;;;;;;;;;;;;;;19.32;41.20;101000.28;4958107;29;1997;-45
2024/03/11 11:32:03;;;;;;;;;;;;;;;15.79;50.14;101001.63;4957493;29;1323;-43
2024/03/11 11:34:44;;;;;;;;;;;;;;;19.04;42.19;101009.63;4958042;29;1101;-42
2024/03/11 11:37:12;;;;;;;;;;;;;;;15.91;48.41;101007.94;4957802;29;1023;-39
2024/03/11 11:39:39;;;;;;;;;;;;;;;18.15;44.50;101005.75;4956386;29;1057;-36
2024/03/11 11:42:06;;;;;;;;;;;;;;;19.10;41.53;100995.84;4957681;29;1509;-39
2024/03/11 11:44:33;;;;;;;;;;;;;;;16.09;49.27;101005.03;4959816;28;1139;-41
2024/03/11 11:47:03;;;;;;;;;;;;;;;19.16;41.89;100994.50;4947269;29;1150;-40
2024/03/11 11:49:31;;;;;;;;;;;;;;;16.21;47.47;100990.94;4954028;29;1903;-44
2024/03/11 11:51:57;;;;;;;;;;;;;;;16.70;48.18;101000.97;4961303;29;1311;-39
2024/03/11 11:54:25;;;;;;;;;;;;;;;19.01;42.10;100993.88;4961099;29;1441;-38
2024/03/11 11:57:12;;;;;;;;;;;;;;;15.36;51.53;101000.81;4961269;29;1307;-38
2024/03/11 11:59:55;;;;;;;;;;;;;;;18.95;42.40;101004.03;4955047;29;1547;-41
2024/03/11 12:02:21;;;;;;;;;;;;;;;15.48;49.68;100999.16;4944518;29;1107;-38
2024/03/11 12:04:51;;;;;;;;;;;;;;;18.26;44.11;100997.81;4961104;29;1272;-38
2024/03/11 12:07:22;;;;;;;;;;;;;;;18.43;42.72;101001.84;4961343;29;1295;-38
2024/03/11 12:09:50;;;;;;;;;;;;;;;16.18;49.38;101016.84;4961142;29;1915;-37
2024/03/11 12:12:28;;;;;;;;;;;;;;;19.10;42.22;101019.84;4961238;29;927;-39
2024/03/11 12:14:54;;;;;;;;;;;;;;;15.38;49.75;101009.50;4961059;29;1343;-38
2024/03/11 12:17:19;;;;;;;;;;;;;;;18.35;43.99;101018.41;4960637;29;1343;-37
2024/03/11 12:19:45;;;;;;;;;;;;;;;18.35;43.03;101013.06;4961528;29;1022;-39
2024/03/11 12:22:16;;;;;;;;;;;;;;;16.13;49.76;101015.34;4961359;29;1406;-37
2024/03/11 12:24:45;;;;;;;;;;;;;;;19.13;42.15;101018.75;4959692;29;1167;-39
2024/03/11 12:27:12;;;;;;;;;;;;;;;15.68;48.81;101007.66;4960778;29;1152;-37
2024/03/11 12:29:39;;;;;;;;;;;;;;;17.84;45.43;101009.72;4948076;29;1958;-39
2024/03/11 12:32:08;;;;;;;;;;;;;;;18.60;42.66;101010.34;4960842;29;1101;-37
2024/03/11 12:34:36;;;;;;;;;;;;;;;15.68;50.67;101015.59;4943391;29;1060;-42
2024/03/11 12:37:02;;;;;;;;;;;;;;;18.89;42.70;101014.34;4947469;29;905;-42
2024/03/11 12:39:33;;;;;;;;;;;;;;;15.85;48.44;101000.38;4960724;29;1026;-39
2024/03/11 12:42:00;;;;;;;;;;;;;;;18.07;44.78;101006.28;4960263;29;1041;-37
2024/03/11 12:44:26;;;;;;;;;;;;;;;18.91;42.17;100996.41;4959928;29;1029;-37
2024/03/11 12:46:53;;;;;;;;;;;;;;;15.93;49.87;100998.06;4960508;29;1100;-38
2024/03/11 12:49:19;;;;;;;;;;;;;;;19.04;42.42;100996.28;4940467;29;1970;-37